sensor_id;sensor_type;location;lat;lon;timestamp;P1;durP1;ratioP1;P2;durP2;ratioP2
12892;SDS011;6514;48.606;9.222;2023-12-28T00:02:00;5.67;;;1.40;;
12892;SDS011;6514;48.606;9.222;2023-12-28T00:04:28;1.17;;;1.07;;
12892;SDS011;6514;48.606;9.222;2023-12-28T00:06:55;1.40;;;1.03;;
12892;SDS011;6514;48.606;9.222;2023-12-28T00:09:22;2.43;;;1.50;;
12892;SDS011;6514;48.606;9.222;2023-12-28T00:11:49;3.17;;;1.70;;
12892;SDS011;6514;48.606;9.222;2023-12-28T00:14:16;3.20;;;2.57;;
12892;SDS011;6514;48.606;9.222;2023-12-28T00:16:43;3.73;;;2.30;;
12892;SDS011;6514;48.606;9.222;2023-12-28T00:19:10;4.33;;;2.37;;
12892;SDS011;6514;48.606;9.222;2023-12-28T00:21:38;3.70;;;2.57;;
12892;SDS011;6514;48.606;9.222;2023-12-28T00:24:06;3.23;;;2.70;;
12892;SDS011;6514;48.606;9.222;2023-12-28T00:26:33;2.90;;;2.30;;
12892;SDS011;6514;48.606;9.222;2023-12-28T00:29:00;2.00;;;1.80;;
12892;SDS011;6514;48.606;9.222;2023-12-28T00:31:27;3.30;;;1.63;;
12892;SDS011;6514;48.606;9.222;2023-12-28T00:33:53;2.57;;;1.80;;
12892;SDS011;6514;48.606;9.222;2023-12-28T00:36:21;1.73;;;1.43;;
12892;SDS011;6514;48.606;9.222;2023-12-28T00:38:49;3.17;;;1.80;;
12892;SDS011;6514;48.606;9.222;2023-12-28T00:41:16;1.90;;;1.70;;
12892;SDS011;6514;48.606;9.222;2023-12-28T00:43:43;2.53;;;1.60;;
12892;SDS011;6514;48.606;9.222;2023-12-28T00:46:10;2.37;;;1.70;;
12892;SDS011;6514;48.606;9.222;2023-12-28T00:48:37;3.80;;;2.03;;
12892;SDS011;6514;48.606;9.222;2023-12-28T00:51:04;2.93;;;1.77;;
12892;SDS011;6514;48.606;9.222;2023-12-28T00:53:31;2.20;;;1.80;;
12892;SDS011;6514;48.606;9.222;2023-12-28T00:55:59;3.33;;;2.00;;
12892;SDS011;6514;48.606;9.222;2023-12-28T00:58:26;1.63;;;1.40;;
12892;SDS011;6514;48.606;9.222;2023-12-28T01:00:53;4.90;;;1.40;;
12892;SDS011;6514;48.606;9.222;2023-12-28T01:03:21;1.97;;;1.40;;
12892;SDS011;6514;48.606;9.222;2023-12-28T01:05:49;2.13;;;1.50;;
12892;SDS011;6514;48.606;9.222;2023-12-28T01:08:18;1.83;;;1.40;;
12892;SDS011;6514;48.606;9.222;2023-12-28T01:10:46;2.80;;;1.30;;
12892;SDS011;6514;48.606;9.222;2023-12-28T01:13:15;2.07;;;1.40;;
12892;SDS011;6514;48.606;9.222;2023-12-28T01:15:42;2.07;;;1.60;;
12892;SDS011;6514;48.606;9.222;2023-12-28T01:18:10;2.73;;;1.43;;
12892;SDS011;6514;48.606;9.222;2023-12-28T01:20:37;1.97;;;1.30;;
12892;SDS011;6514;48.606;9.222;2023-12-28T01:23:04;1.67;;;1.40;;
12892;SDS011;6514;48.606;9.222;2023-12-28T01:25:31;1.80;;;1.27;;
12892;SDS011;6514;48.606;9.222;2023-12-28T01:27:58;2.07;;;1.13;;
12892;SDS011;6514;48.606;9.222;2023-12-28T01:30:26;1.60;;;1.50;;
12892;SDS011;6514;48.606;9.222;2023-12-28T01:32:53;1.83;;;1.33;;
12892;SDS011;6514;48.606;9.222;2023-12-28T01:35:20;1.33;;;1.13;;
12892;SDS011;6514;48.606;9.222;2023-12-28T01:37:47;1.67;;;1.20;;
12892;SDS011;6514;48.606;9.222;2023-12-28T01:40:14;3.03;;;1.70;;
12892;SDS011;6514;48.606;9.222;2023-12-28T01:42:42;1.80;;;1.30;;
12892;SDS011;6514;48.606;9.222;2023-12-28T01:45:09;2.07;;;1.53;;
12892;SDS011;6514;48.606;9.222;2023-12-28T01:47:37;1.40;;;1.20;;
12892;SDS011;6514;48.606;9.222;2023-12-28T01:50:05;2.63;;;1.13;;
12892;SDS011;6514;48.606;9.222;2023-12-28T01:52:33;1.37;;;1.13;;
12892;SDS011;6514;48.606;9.222;2023-12-28T01:55:00;1.70;;;1.50;;
12892;SDS011;6514;48.606;9.222;2023-12-28T01:57:28;1.47;;;1.20;;
12892;SDS011;6514;48.606;9.222;2023-12-28T01:59:55;1.30;;;1.07;;
12892;SDS011;6514;48.606;9.222;2023-12-28T02:02:23;2.70;;;1.60;;
12892;SDS011;6514;48.606;9.222;2023-12-28T02:04:52;1.70;;;1.37;;
12892;SDS011;6514;48.606;9.222;2023-12-28T02:07:20;2.83;;;1.40;;
12892;SDS011;6514;48.606;9.222;2023-12-28T02:09:47;1.50;;;1.20;;
12892;SDS011;6514;48.606;9.222;2023-12-28T02:12:14;1.10;;;1.00;;
12892;SDS011;6514;48.606;9.222;2023-12-28T02:14:41;2.67;;;1.33;;
12892;SDS011;6514;48.606;9.222;2023-12-28T02:17:10;2.53;;;1.50;;
12892;SDS011;6514;48.606;9.222;2023-12-28T02:19:43;2.30;;;1.30;;
12892;SDS011;6514;48.606;9.222;2023-12-28T02:22:17;1.53;;;1.20;;
12892;SDS011;6514;48.606;9.222;2023-12-28T02:24:55;1.30;;;1.10;;
12892;SDS011;6514;48.606;9.222;2023-12-28T02:27:32;1.13;;;1.03;;
12892;SDS011;6514;48.606;9.222;2023-12-28T02:30:00;1.40;;;1.00;;
12892;SDS011;6514;48.606;9.222;2023-12-28T02:32:33;3.20;;;1.23;;
12892;SDS011;6514;48.606;9.222;2023-12-28T02:35:23;1.40;;;1.30;;
12892;SDS011;6514;48.606;9.222;2023-12-28T02:37:55;1.40;;;1.30;;
12892;SDS011;6514;48.606;9.222;2023-12-28T02:40:26;2.37;;;1.30;;
12892;SDS011;6514;48.606;9.222;2023-12-28T02:42:53;1.37;;;1.10;;
12892;SDS011;6514;48.606;9.222;2023-12-28T02:45:21;1.87;;;1.27;;
12892;SDS011;6514;48.606;9.222;2023-12-28T02:47:48;1.53;;;1.40;;
12892;SDS011;6514;48.606;9.222;2023-12-28T02:50:15;2.57;;;1.30;;
12892;SDS011;6514;48.606;9.222;2023-12-28T02:52:42;1.50;;;1.40;;
12892;SDS011;6514;48.606;9.222;2023-12-28T02:55:09;2.47;;;1.20;;
12892;SDS011;6514;48.606;9.222;2023-12-28T02:57:37;2.37;;;1.40;;
12892;SDS011;6514;48.606;9.222;2023-12-28T03:00:05;1.40;;;1.30;;
12892;SDS011;6514;48.606;9.222;2023-12-28T03:02:34;2.27;;;1.33;;
12892;SDS011;6514;48.606;9.222;2023-12-28T03:05:02;3.43;;;1.37;;
12892;SDS011;6514;48.606;9.222;2023-12-28T03:07:30;1.40;;;1.30;;
12892;SDS011;6514;48.606;9.222;2023-12-28T03:09:57;1.60;;;1.37;;
12892;SDS011;6514;48.606;9.222;2023-12-28T03:12:24;1.97;;;1.40;;
12892;SDS011;6514;48.606;9.222;2023-12-28T03:14:52;1.50;;;1.40;;
12892;SDS011;6514;48.606;9.222;2023-12-28T03:17:19;1.90;;;1.47;;
12892;SDS011;6514;48.606;9.222;2023-12-28T03:19:46;3.17;;;1.83;;
12892;SDS011;6514;48.606;9.222;2023-12-28T03:22:13;2.60;;;1.03;;
12892;SDS011;6514;48.606;9.222;2023-12-28T03:24:42;1.30;;;1.20;;
12892;SDS011;6514;48.606;9.222;2023-12-28T03:27:09;1.47;;;1.37;;
12892;SDS011;6514;48.606;9.222;2023-12-28T03:29:36;1.87;;;1.50;;
12892;SDS011;6514;48.606;9.222;2023-12-28T03:32:05;1.93;;;1.13;;
12892;SDS011;6514;48.606;9.222;2023-12-28T03:34:33;1.60;;;1.10;;
12892;SDS011;6514;48.606;9.222;2023-12-28T03:37:00;1.50;;;1.23;;
12892;SDS011;6514;48.606;9.222;2023-12-28T03:39:27;1.50;;;1.20;;
12892;SDS011;6514;48.606;9.222;2023-12-28T03:41:54;3.57;;;1.20;;
12892;SDS011;6514;48.606;9.222;2023-12-28T03:44:21;1.83;;;1.30;;
12892;SDS011;6514;48.606;9.222;2023-12-28T03:46:48;1.87;;;1.13;;
12892;SDS011;6514;48.606;9.222;2023-12-28T03:49:17;1.13;;;1.00;;
12892;SDS011;6514;48.606;9.222;2023-12-28T03:51:44;1.77;;;1.20;;
12892;SDS011;6514;48.606;9.222;2023-12-28T03:54:12;1.20;;;1.10;;
12892;SDS011;6514;48.606;9.222;2023-12-28T03:56:42;1.77;;;1.30;;
12892;SDS011;6514;48.606;9.222;2023-12-28T03:59:09;1.43;;;1.10;;
12892;SDS011;6514;48.606;9.222;2023-12-28T04:01:36;2.07;;;1.20;;
12892;SDS011;6514;48.606;9.222;2023-12-28T04:04:03;1.70;;;1.43;;
12892;SDS011;6514;48.606;9.222;2023-12-28T04:06:32;3.83;;;1.43;;
12892;SDS011;6514;48.606;9.222;2023-12-28T04:08:59;2.10;;;1.30;;
12892;SDS011;6514;48.606;9.222;2023-12-28T04:11:26;4.00;;;1.20;;
12892;SDS011;6514;48.606;9.222;2023-12-28T04:13:53;2.00;;;1.20;;
12892;SDS011;6514;48.606;9.222;2023-12-28T04:16:20;2.23;;;1.20;;
12892;SDS011;6514;48.606;9.222;2023-12-28T04:18:47;1.63;;;1.10;;
12892;SDS011;6514;48.606;9.222;2023-12-28T04:21:14;1.67;;;1.40;;
12892;SDS011;6514;48.606;9.222;2023-12-28T04:23:42;1.80;;;1.60;;
12892;SDS011;6514;48.606;9.222;2023-12-28T04:26:09;1.70;;;1.10;;
12892;SDS011;6514;48.606;9.222;2023-12-28T04:28:36;1.50;;;1.13;;
12892;SDS011;6514;48.606;9.222;2023-12-28T04:31:03;3.73;;;1.17;;
12892;SDS011;6514;48.606;9.222;2023-12-28T04:33:31;2.00;;;1.20;;
12892;SDS011;6514;48.606;9.222;2023-12-28T04:36:00;1.80;;;1.00;;
12892;SDS011;6514;48.606;9.222;2023-12-28T04:38:29;1.20;;;1.10;;
12892;SDS011;6514;48.606;9.222;2023-12-28T04:40:58;1.03;;;0.87;;
12892;SDS011;6514;48.606;9.222;2023-12-28T04:43:25;1.37;;;0.90;;
12892;SDS011;6514;48.606;9.222;2023-12-28T04:45:52;2.17;;;1.03;;
12892;SDS011;6514;48.606;9.222;2023-12-28T04:48:19;2.03;;;1.20;;
12892;SDS011;6514;48.606;9.222;2023-12-28T04:50:48;2.20;;;1.30;;
12892;SDS011;6514;48.606;9.222;2023-12-28T04:53:15;1.97;;;1.37;;
12892;SDS011;6514;48.606;9.222;2023-12-28T04:55:42;1.17;;;0.90;;
12892;SDS011;6514;48.606;9.222;2023-12-28T04:58:11;1.60;;;1.13;;
12892;SDS011;6514;48.606;9.222;2023-12-28T05:00:38;0.97;;;0.83;;
12892;SDS011;6514;48.606;9.222;2023-12-28T05:03:05;1.47;;;1.03;;
12892;SDS011;6514;48.606;9.222;2023-12-28T05:05:32;1.17;;;1.07;;
12892;SDS011;6514;48.606;9.222;2023-12-28T05:07:59;1.47;;;1.00;;
12892;SDS011;6514;48.606;9.222;2023-12-28T05:10:26;1.50;;;1.10;;
12892;SDS011;6514;48.606;9.222;2023-12-28T05:12:53;1.97;;;1.17;;
12892;SDS011;6514;48.606;9.222;2023-12-28T05:15:21;1.57;;;1.03;;
12892;SDS011;6514;48.606;9.222;2023-12-28T05:17:48;1.47;;;0.90;;
12892;SDS011;6514;48.606;9.222;2023-12-28T05:20:16;1.97;;;1.30;;
12892;SDS011;6514;48.606;9.222;2023-12-28T05:22:44;1.23;;;0.93;;
12892;SDS011;6514;48.606;9.222;2023-12-28T05:25:10;1.07;;;0.97;;
12892;SDS011;6514;48.606;9.222;2023-12-28T05:27:37;1.13;;;1.00;;
12892;SDS011;6514;48.606;9.222;2023-12-28T05:30:05;1.43;;;0.93;;
12892;SDS011;6514;48.606;9.222;2023-12-28T05:32:34;2.90;;;1.20;;
12892;SDS011;6514;48.606;9.222;2023-12-28T05:35:02;3.63;;;1.53;;
12892;SDS011;6514;48.606;9.222;2023-12-28T05:37:29;1.90;;;1.57;;
12892;SDS011;6514;48.606;9.222;2023-12-28T05:39:56;1.07;;;0.97;;
12892;SDS011;6514;48.606;9.222;2023-12-28T05:42:23;1.33;;;1.20;;
12892;SDS011;6514;48.606;9.222;2023-12-28T05:44:50;1.10;;;1.00;;
12892;SDS011;6514;48.606;9.222;2023-12-28T05:47:17;1.50;;;1.17;;
12892;SDS011;6514;48.606;9.222;2023-12-28T05:49:49;1.47;;;1.20;;
12892;SDS011;6514;48.606;9.222;2023-12-28T05:52:16;1.50;;;1.20;;
12892;SDS011;6514;48.606;9.222;2023-12-28T05:54:44;1.67;;;1.33;;
12892;SDS011;6514;48.606;9.222;2023-12-28T05:57:13;1.10;;;1.00;;
12892;SDS011;6514;48.606;9.222;2023-12-28T05:59:40;1.67;;;1.23;;
12892;SDS011;6514;48.606;9.222;2023-12-28T06:02:07;1.70;;;1.33;;
12892;SDS011;6514;48.606;9.222;2023-12-28T06:04:34;1.83;;;1.40;;
12892;SDS011;6514;48.606;9.222;2023-12-28T06:07:03;3.27;;;1.37;;
12892;SDS011;6514;48.606;9.222;2023-12-28T06:09:32;1.23;;;0.97;;
12892;SDS011;6514;48.606;9.222;2023-12-28T06:11:59;2.73;;;1.20;;
12892;SDS011;6514;48.606;9.222;2023-12-28T06:14:26;1.23;;;1.03;;
12892;SDS011;6514;48.606;9.222;2023-12-28T06:16:54;1.47;;;1.20;;
12892;SDS011;6514;48.606;9.222;2023-12-28T06:19:21;1.93;;;1.50;;
12892;SDS011;6514;48.606;9.222;2023-12-28T06:21:49;1.57;;;1.30;;
12892;SDS011;6514;48.606;9.222;2023-12-28T06:24:17;1.47;;;1.20;;
12892;SDS011;6514;48.606;9.222;2023-12-28T06:26:44;2.43;;;1.20;;
12892;SDS011;6514;48.606;9.222;2023-12-28T06:29:11;2.10;;;1.60;;
12892;SDS011;6514;48.606;9.222;2023-12-28T06:31:38;1.80;;;1.30;;
12892;SDS011;6514;48.606;9.222;2023-12-28T06:34:05;2.87;;;1.00;;
12892;SDS011;6514;48.606;9.222;2023-12-28T06:36:32;2.73;;;1.17;;
12892;SDS011;6514;48.606;9.222;2023-12-28T06:38:59;1.40;;;1.17;;
12892;SDS011;6514;48.606;9.222;2023-12-28T06:41:28;1.20;;;1.10;;
12892;SDS011;6514;48.606;9.222;2023-12-28T06:43:55;1.80;;;1.23;;
12892;SDS011;6514;48.606;9.222;2023-12-28T06:46:22;1.00;;;0.97;;
12892;SDS011;6514;48.606;9.222;2023-12-28T06:48:49;1.93;;;1.30;;
12892;SDS011;6514;48.606;9.222;2023-12-28T06:51:16;1.40;;;0.90;;
12892;SDS011;6514;48.606;9.222;2023-12-28T06:53:44;1.03;;;0.90;;
12892;SDS011;6514;48.606;9.222;2023-12-28T06:56:11;1.60;;;0.90;;
12892;SDS011;6514;48.606;9.222;2023-12-28T06:58:39;1.70;;;1.30;;
12892;SDS011;6514;48.606;9.222;2023-12-28T07:01:06;1.73;;;1.00;;
12892;SDS011;6514;48.606;9.222;2023-12-28T07:03:33;1.17;;;0.90;;
12892;SDS011;6514;48.606;9.222;2023-12-28T07:06:00;1.57;;;0.90;;
12892;SDS011;6514;48.606;9.222;2023-12-28T07:08:28;0.93;;;0.80;;
12892;SDS011;6514;48.606;9.222;2023-12-28T07:10:54;0.97;;;0.90;;
12892;SDS011;6514;48.606;9.222;2023-12-28T07:13:22;1.10;;;0.80;;
12892;SDS011;6514;48.606;9.222;2023-12-28T07:15:50;2.10;;;1.00;;
12892;SDS011;6514;48.606;9.222;2023-12-28T07:18:18;1.50;;;0.73;;
12892;SDS011;6514;48.606;9.222;2023-12-28T07:20:45;2.30;;;1.00;;
12892;SDS011;6514;48.606;9.222;2023-12-28T07:23:12;2.03;;;1.00;;
12892;SDS011;6514;48.606;9.222;2023-12-28T07:25:39;1.93;;;1.00;;
12892;SDS011;6514;48.606;9.222;2023-12-28T07:28:06;2.40;;;1.00;;
12892;SDS011;6514;48.606;9.222;2023-12-28T07:30:33;1.40;;;1.00;;
12892;SDS011;6514;48.606;9.222;2023-12-28T07:33:01;1.30;;;1.00;;
12892;SDS011;6514;48.606;9.222;2023-12-28T07:35:28;2.13;;;1.20;;
12892;SDS011;6514;48.606;9.222;2023-12-28T07:37:55;1.73;;;0.90;;
12892;SDS011;6514;48.606;9.222;2023-12-28T07:40:22;1.83;;;1.20;;
12892;SDS011;6514;48.606;9.222;2023-12-28T07:42:49;3.03;;;1.20;;
12892;SDS011;6514;48.606;9.222;2023-12-28T07:45:16;2.23;;;2.03;;
12892;SDS011;6514;48.606;9.222;2023-12-28T07:47:48;3.63;;;2.57;;
12892;SDS011;6514;48.606;9.222;2023-12-28T07:50:16;1.83;;;1.40;;
12892;SDS011;6514;48.606;9.222;2023-12-28T07:52:43;1.33;;;1.23;;
12892;SDS011;6514;48.606;9.222;2023-12-28T07:55:10;1.67;;;1.20;;
12892;SDS011;6514;48.606;9.222;2023-12-28T07:57:37;1.67;;;1.00;;
12892;SDS011;6514;48.606;9.222;2023-12-28T08:00:05;1.70;;;1.03;;
12892;SDS011;6514;48.606;9.222;2023-12-28T08:02:33;1.33;;;1.00;;
12892;SDS011;6514;48.606;9.222;2023-12-28T08:05:00;1.23;;;0.97;;
12892;SDS011;6514;48.606;9.222;2023-12-28T08:07:28;2.67;;;1.40;;
12892;SDS011;6514;48.606;9.222;2023-12-28T08:09:55;2.47;;;1.27;;
12892;SDS011;6514;48.606;9.222;2023-12-28T08:12:21;1.50;;;1.17;;
12892;SDS011;6514;48.606;9.222;2023-12-28T08:14:49;1.20;;;0.90;;
12892;SDS011;6514;48.606;9.222;2023-12-28T08:17:16;1.93;;;1.30;;
12892;SDS011;6514;48.606;9.222;2023-12-28T08:19:43;1.53;;;1.23;;
12892;SDS011;6514;48.606;9.222;2023-12-28T08:22:09;2.73;;;1.30;;
12892;SDS011;6514;48.606;9.222;2023-12-28T08:24:38;1.53;;;1.27;;
12892;SDS011;6514;48.606;9.222;2023-12-28T08:27:04;1.70;;;1.20;;
12892;SDS011;6514;48.606;9.222;2023-12-28T08:29:31;1.63;;;1.30;;
12892;SDS011;6514;48.606;9.222;2023-12-28T08:31:58;2.37;;;1.50;;
12892;SDS011;6514;48.606;9.222;2023-12-28T08:34:25;1.93;;;1.23;;
12892;SDS011;6514;48.606;9.222;2023-12-28T08:36:53;2.83;;;1.40;;
12892;SDS011;6514;48.606;9.222;2023-12-28T08:39:19;3.30;;;1.40;;
12892;SDS011;6514;48.606;9.222;2023-12-28T08:41:47;1.63;;;1.40;;
12892;SDS011;6514;48.606;9.222;2023-12-28T08:44:15;2.73;;;1.67;;
12892;SDS011;6514;48.606;9.222;2023-12-28T08:46:41;1.60;;;1.27;;
12892;SDS011;6514;48.606;9.222;2023-12-28T08:49:08;2.30;;;1.30;;
12892;SDS011;6514;48.606;9.222;2023-12-28T08:51:35;1.47;;;1.00;;
12892;SDS011;6514;48.606;9.222;2023-12-28T08:54:02;3.30;;;1.30;;
12892;SDS011;6514;48.606;9.222;2023-12-28T08:56:29;2.27;;;1.40;;
12892;SDS011;6514;48.606;9.222;2023-12-28T08:58:57;1.53;;;1.20;;
12892;SDS011;6514;48.606;9.222;2023-12-28T09:01:24;1.67;;;1.13;;
12892;SDS011;6514;48.606;9.222;2023-12-28T09:03:51;3.57;;;1.20;;
12892;SDS011;6514;48.606;9.222;2023-12-28T09:06:19;2.20;;;1.13;;
12892;SDS011;6514;48.606;9.222;2023-12-28T09:08:47;1.97;;;1.23;;
12892;SDS011;6514;48.606;9.222;2023-12-28T09:11:16;2.17;;;1.13;;
12892;SDS011;6514;48.606;9.222;2023-12-28T09:13:44;2.57;;;1.00;;
12892;SDS011;6514;48.606;9.222;2023-12-28T09:16:13;1.47;;;0.93;;
12892;SDS011;6514;48.606;9.222;2023-12-28T09:18:41;1.77;;;1.10;;
12892;SDS011;6514;48.606;9.222;2023-12-28T09:21:08;2.47;;;1.67;;
12892;SDS011;6514;48.606;9.222;2023-12-28T09:23:35;2.67;;;1.80;;
12892;SDS011;6514;48.606;9.222;2023-12-28T09:26:03;2.20;;;1.73;;
12892;SDS011;6514;48.606;9.222;2023-12-28T09:28:31;2.07;;;1.50;;
12892;SDS011;6514;48.606;9.222;2023-12-28T09:31:00;2.70;;;1.30;;
12892;SDS011;6514;48.606;9.222;2023-12-28T09:33:28;2.47;;;1.47;;
12892;SDS011;6514;48.606;9.222;2023-12-28T09:35:55;3.87;;;1.30;;
12892;SDS011;6514;48.606;9.222;2023-12-28T09:38:21;3.23;;;1.20;;
12892;SDS011;6514;48.606;9.222;2023-12-28T09:40:49;2.87;;;1.27;;
12892;SDS011;6514;48.606;9.222;2023-12-28T09:43:21;3.43;;;1.30;;
12892;SDS011;6514;48.606;9.222;2023-12-28T09:45:49;1.30;;;0.83;;
12892;SDS011;6514;48.606;9.222;2023-12-28T09:48:16;1.20;;;1.03;;
12892;SDS011;6514;48.606;9.222;2023-12-28T09:50:45;2.60;;;0.80;;
12892;SDS011;6514;48.606;9.222;2023-12-28T09:53:15;1.50;;;1.10;;
12892;SDS011;6514;48.606;9.222;2023-12-28T09:55:42;2.07;;;0.90;;
12892;SDS011;6514;48.606;9.222;2023-12-28T09:58:09;1.30;;;1.17;;
12892;SDS011;6514;48.606;9.222;2023-12-28T10:00:38;2.20;;;1.10;;
12892;SDS011;6514;48.606;9.222;2023-12-28T10:03:05;0.90;;;0.80;;
12892;SDS011;6514;48.606;9.222;2023-12-28T10:05:32;1.40;;;1.30;;
12892;SDS011;6514;48.606;9.222;2023-12-28T10:08:00;1.47;;;0.97;;
12892;SDS011;6514;48.606;9.222;2023-12-28T10:10:28;2.13;;;0.87;;
12892;SDS011;6514;48.606;9.222;2023-12-28T10:12:55;1.50;;;1.20;;
12892;SDS011;6514;48.606;9.222;2023-12-28T10:15:22;2.03;;;1.20;;
12892;SDS011;6514;48.606;9.222;2023-12-28T10:17:51;1.70;;;1.00;;
12892;SDS011;6514;48.606;9.222;2023-12-28T10:20:18;2.07;;;1.10;;
12892;SDS011;6514;48.606;9.222;2023-12-28T10:22:44;2.40;;;1.20;;
12892;SDS011;6514;48.606;9.222;2023-12-28T10:25:13;3.27;;;1.00;;
12892;SDS011;6514;48.606;9.222;2023-12-28T10:27:40;1.20;;;0.90;;
12892;SDS011;6514;48.606;9.222;2023-12-28T10:30:07;1.57;;;1.33;;
12892;SDS011;6514;48.606;9.222;2023-12-28T10:32:35;2.23;;;1.43;;
12892;SDS011;6514;48.606;9.222;2023-12-28T10:35:02;1.57;;;0.90;;
12892;SDS011;6514;48.606;9.222;2023-12-28T10:37:30;2.70;;;1.30;;
12892;SDS011;6514;48.606;9.222;2023-12-28T10:39:59;2.50;;;1.37;;
12892;SDS011;6514;48.606;9.222;2023-12-28T10:42:29;3.40;;;2.50;;
12892;SDS011;6514;48.606;9.222;2023-12-28T10:45:01;6.17;;;3.40;;
12892;SDS011;6514;48.606;9.222;2023-12-28T10:47:31;8.73;;;5.00;;
12892;SDS011;6514;48.606;9.222;2023-12-28T10:50:00;4.00;;;1.97;;
12892;SDS011;6514;48.606;9.222;2023-12-28T10:52:31;2.73;;;1.40;;
12892;SDS011;6514;48.606;9.222;2023-12-28T10:55:07;3.23;;;1.80;;
12892;SDS011;6514;48.606;9.222;2023-12-28T10:57:48;3.30;;;1.37;;
12892;SDS011;6514;48.606;9.222;2023-12-28T11:00:25;3.40;;;2.00;;
12892;SDS011;6514;48.606;9.222;2023-12-28T11:02:56;1.83;;;1.40;;
12892;SDS011;6514;48.606;9.222;2023-12-28T11:05:28;1.43;;;1.20;;
12892;SDS011;6514;48.606;9.222;2023-12-28T11:07:56;4.20;;;1.43;;
12892;SDS011;6514;48.606;9.222;2023-12-28T11:10:25;2.60;;;1.40;;
12892;SDS011;6514;48.606;9.222;2023-12-28T11:12:55;3.00;;;1.20;;
12892;SDS011;6514;48.606;9.222;2023-12-28T11:15:24;1.73;;;1.50;;
12892;SDS011;6514;48.606;9.222;2023-12-28T11:17:52;2.27;;;1.23;;
12892;SDS011;6514;48.606;9.222;2023-12-28T11:20:19;2.10;;;1.53;;
12892;SDS011;6514;48.606;9.222;2023-12-28T11:22:46;1.10;;;1.00;;
12892;SDS011;6514;48.606;9.222;2023-12-28T11:25:14;1.70;;;1.43;;
12892;SDS011;6514;48.606;9.222;2023-12-28T11:27:43;2.43;;;1.73;;
12892;SDS011;6514;48.606;9.222;2023-12-28T11:30:12;3.40;;;1.83;;
12892;SDS011;6514;48.606;9.222;2023-12-28T11:32:40;5.57;;;2.30;;
12892;SDS011;6514;48.606;9.222;2023-12-28T11:35:08;6.83;;;3.70;;
12892;SDS011;6514;48.606;9.222;2023-12-28T11:37:38;5.43;;;3.03;;
12892;SDS011;6514;48.606;9.222;2023-12-28T11:40:09;5.10;;;3.00;;
12892;SDS011;6514;48.606;9.222;2023-12-28T11:42:37;4.20;;;2.40;;
12892;SDS011;6514;48.606;9.222;2023-12-28T11:45:15;3.57;;;1.60;;
12892;SDS011;6514;48.606;9.222;2023-12-28T11:47:42;1.83;;;1.27;;
12892;SDS011;6514;48.606;9.222;2023-12-28T11:50:10;1.80;;;1.40;;
12892;SDS011;6514;48.606;9.222;2023-12-28T11:52:37;1.43;;;1.33;;
12892;SDS011;6514;48.606;9.222;2023-12-28T11:55:04;2.40;;;1.40;;
12892;SDS011;6514;48.606;9.222;2023-12-28T11:57:32;1.87;;;1.40;;
12892;SDS011;6514;48.606;9.222;2023-12-28T12:00:00;2.17;;;1.20;;
12892;SDS011;6514;48.606;9.222;2023-12-28T12:02:30;1.73;;;1.30;;
12892;SDS011;6514;48.606;9.222;2023-12-28T12:04:58;2.47;;;1.50;;
12892;SDS011;6514;48.606;9.222;2023-12-28T12:07:26;2.23;;;1.20;;
12892;SDS011;6514;48.606;9.222;2023-12-28T12:09:56;1.50;;;1.30;;
12892;SDS011;6514;48.606;9.222;2023-12-28T12:12:24;1.63;;;1.07;;
12892;SDS011;6514;48.606;9.222;2023-12-28T12:14:51;4.17;;;1.20;;
12892;SDS011;6514;48.606;9.222;2023-12-28T12:17:18;2.57;;;1.10;;
12892;SDS011;6514;48.606;9.222;2023-12-28T12:19:46;3.47;;;1.13;;
12892;SDS011;6514;48.606;9.222;2023-12-28T12:22:16;1.73;;;1.10;;
12892;SDS011;6514;48.606;9.222;2023-12-28T12:24:44;2.50;;;0.97;;
12892;SDS011;6514;48.606;9.222;2023-12-28T12:27:12;1.00;;;0.90;;
12892;SDS011;6514;48.606;9.222;2023-12-28T12:29:39;1.20;;;1.10;;
12892;SDS011;6514;48.606;9.222;2023-12-28T12:32:06;1.73;;;1.03;;
12892;SDS011;6514;48.606;9.222;2023-12-28T12:34:33;1.83;;;0.90;;
12892;SDS011;6514;48.606;9.222;2023-12-28T12:37:02;3.23;;;1.20;;
12892;SDS011;6514;48.606;9.222;2023-12-28T12:39:29;1.63;;;1.00;;
12892;SDS011;6514;48.606;9.222;2023-12-28T12:41:57;2.53;;;1.03;;
12892;SDS011;6514;48.606;9.222;2023-12-28T12:44:24;2.43;;;1.40;;
12892;SDS011;6514;48.606;9.222;2023-12-28T12:46:56;3.23;;;1.60;;
12892;SDS011;6514;48.606;9.222;2023-12-28T12:49:23;2.37;;;1.23;;
12892;SDS011;6514;48.606;9.222;2023-12-28T12:51:50;2.40;;;1.50;;
12892;SDS011;6514;48.606;9.222;2023-12-28T12:54:19;1.77;;;1.30;;
12892;SDS011;6514;48.606;9.222;2023-12-28T12:56:46;1.97;;;1.40;;
12892;SDS011;6514;48.606;9.222;2023-12-28T12:59:15;2.17;;;1.57;;
12892;SDS011;6514;48.606;9.222;2023-12-28T13:01:42;2.33;;;1.20;;
12892;SDS011;6514;48.606;9.222;2023-12-28T13:04:09;2.03;;;1.33;;
12892;SDS011;6514;48.606;9.222;2023-12-28T13:06:36;1.60;;;1.03;;
12892;SDS011;6514;48.606;9.222;2023-12-28T13:09:04;1.00;;;0.90;;
12892;SDS011;6514;48.606;9.222;2023-12-28T13:11:34;1.80;;;0.97;;
12892;SDS011;6514;48.606;9.222;2023-12-28T13:14:01;1.30;;;1.20;;
12892;SDS011;6514;48.606;9.222;2023-12-28T13:16:28;1.17;;;1.00;;
12892;SDS011;6514;48.606;9.222;2023-12-28T13:18:55;2.50;;;1.13;;
12892;SDS011;6514;48.606;9.222;2023-12-28T13:21:22;3.47;;;0.93;;
12892;SDS011;6514;48.606;9.222;2023-12-28T13:23:49;1.10;;;1.00;;
12892;SDS011;6514;48.606;9.222;2023-12-28T13:26:16;1.13;;;1.03;;
12892;SDS011;6514;48.606;9.222;2023-12-28T13:28:44;1.70;;;1.30;;
12892;SDS011;6514;48.606;9.222;2023-12-28T13:31:11;2.87;;;1.50;;
12892;SDS011;6514;48.606;9.222;2023-12-28T13:33:38;1.67;;;1.57;;
12892;SDS011;6514;48.606;9.222;2023-12-28T13:36:04;3.07;;;1.40;;
12892;SDS011;6514;48.606;9.222;2023-12-28T13:38:31;2.23;;;1.10;;
12892;SDS011;6514;48.606;9.222;2023-12-28T13:40:58;2.40;;;1.00;;
12892;SDS011;6514;48.606;9.222;2023-12-28T13:43:25;1.77;;;1.20;;
12892;SDS011;6514;48.606;9.222;2023-12-28T13:45:53;1.50;;;1.00;;
12892;SDS011;6514;48.606;9.222;2023-12-28T13:48:20;1.27;;;1.13;;
12892;SDS011;6514;48.606;9.222;2023-12-28T13:50:46;1.37;;;1.07;;
12892;SDS011;6514;48.606;9.222;2023-12-28T13:53:14;3.07;;;1.20;;
12892;SDS011;6514;48.606;9.222;2023-12-28T13:55:41;1.70;;;1.00;;
12892;SDS011;6514;48.606;9.222;2023-12-28T13:58:08;2.23;;;1.10;;
12892;SDS011;6514;48.606;9.222;2023-12-28T14:00:35;2.30;;;1.43;;
12892;SDS011;6514;48.606;9.222;2023-12-28T14:03:03;1.47;;;1.20;;
12892;SDS011;6514;48.606;9.222;2023-12-28T14:05:30;1.90;;;1.27;;
12892;SDS011;6514;48.606;9.222;2023-12-28T14:07:57;2.60;;;1.47;;
12892;SDS011;6514;48.606;9.222;2023-12-28T14:10:24;1.83;;;1.50;;
12892;SDS011;6514;48.606;9.222;2023-12-28T14:12:51;2.30;;;1.90;;
12892;SDS011;6514;48.606;9.222;2023-12-28T14:15:17;3.93;;;3.23;;
12892;SDS011;6514;48.606;9.222;2023-12-28T14:17:45;3.70;;;2.77;;
12892;SDS011;6514;48.606;9.222;2023-12-28T14:20:13;5.07;;;3.00;;
12892;SDS011;6514;48.606;9.222;2023-12-28T14:22:40;3.90;;;3.20;;
12892;SDS011;6514;48.606;9.222;2023-12-28T14:25:08;5.10;;;2.93;;
12892;SDS011;6514;48.606;9.222;2023-12-28T14:27:36;3.97;;;2.90;;
12892;SDS011;6514;48.606;9.222;2023-12-28T14:30:04;4.13;;;2.80;;
12892;SDS011;6514;48.606;9.222;2023-12-28T14:32:34;2.93;;;2.30;;
12892;SDS011;6514;48.606;9.222;2023-12-28T14:35:02;2.43;;;2.20;;
12892;SDS011;6514;48.606;9.222;2023-12-28T14:37:31;1.77;;;1.60;;
12892;SDS011;6514;48.606;9.222;2023-12-28T14:39:57;3.83;;;1.70;;
12892;SDS011;6514;48.606;9.222;2023-12-28T14:42:24;2.30;;;1.60;;
12892;SDS011;6514;48.606;9.222;2023-12-28T14:44:51;3.97;;;1.80;;
12892;SDS011;6514;48.606;9.222;2023-12-28T14:47:18;3.83;;;1.70;;
12892;SDS011;6514;48.606;9.222;2023-12-28T14:49:45;2.97;;;2.10;;
12892;SDS011;6514;48.606;9.222;2023-12-28T14:52:12;3.00;;;2.07;;
12892;SDS011;6514;48.606;9.222;2023-12-28T14:54:40;2.97;;;1.70;;
12892;SDS011;6514;48.606;9.222;2023-12-28T14:57:08;2.20;;;1.70;;
12892;SDS011;6514;48.606;9.222;2023-12-28T14:59:37;3.33;;;1.70;;
12892;SDS011;6514;48.606;9.222;2023-12-28T15:02:04;2.70;;;1.80;;
12892;SDS011;6514;48.606;9.222;2023-12-28T15:04:31;2.87;;;2.43;;